Flight Track Log - Related Links

Times and Time Zones

All times are in EDT time to prevent confusion due to time zone crossing. See the AAL2360 flight status page for this flight to view local times or setup timezone preferences in your user account.

Time Position Orientation Groundspeed Altitude Reporting Facility
EDT Latitude Longitude Course Direction KTS MPH feet Rate Location/Type
Wed 03:37:11 PM 32.8833 -97.0333 357° North 176 203 1,500  Level Dallas / Fort Worth TRACON
Wed 03:37:35 PM 32.8667 -97.0333 180° South 184 212 2,500 1,929 Climbing Dallas / Fort Worth TRACON
Wed 03:38:35 PM 32.8000 -97.0000 157° South 239 275 4,200 1,900 Climbing Dallas / Fort Worth TRACON
Wed 03:39:35 PM 32.7667 -96.9333 121° Southeast 273 314 6,300 2,124 Climbing Dallas / Fort Worth TRACON
Wed 03:40:00 PM 32.9890 -96.8000 North  Level FlightAware Approximate
Wed 03:41:00 PM 33.1124 -96.8033 357° North  Level FlightAware Approximate
Wed 03:42:00 PM 33.2356 -96.8121 357° North  Level FlightAware Approximate
Wed 03:42:04 PM 32.8925 -96.8097 40° Northeast 286 329 11,600  Level Fort Worth Center
Wed 03:43:04 PM 32.9803 -96.8117 359° North 320 368 13,800 2,281 Climbing Fort Worth Center
Wed 03:44:05 PM 33.0928 -96.8158 358° North 357 411 16,200 2,300 Climbing Fort Worth Center
Wed 03:45:04 PM 33.1847 -96.8153 360° North 370 426 18,400 1,916 Climbing Fort Worth Center
Wed 03:46:04 PM 33.3017 -96.8194 358° North 375 432 20,000 900 Climbing Fort Worth Center
Wed 03:47:04 PM 33.3997 -96.8236 358° North 386 444 20,200 1,000 Climbing Fort Worth Center
Wed 03:48:04 PM 33.5206 -96.7831 16° North 391 450 22,000 1,500 Climbing Fort Worth Center
Wed 03:49:04 PM 33.6164 -96.7200 29° Northeast 419 482 23,200 1,350 Climbing Fort Worth Center
Wed 03:50:04 PM 33.7347 -96.6417 29° Northeast 434 499 24,700 1,450 Climbing Fort Worth Center
Wed 03:51:04 PM 33.8469 -96.5681 29° Northeast 434 499 26,100 1,300 Climbing Fort Worth Center
Wed 03:52:04 PM 33.9614 -96.4969 27° Northeast 445 512 27,300 1,200 Climbing Fort Worth Center
Wed 03:53:04 PM 34.0797 -96.4181 29° Northeast 468 539 28,500 1,150 Climbing Fort Worth Center
Wed 03:54:04 PM 34.1853 -96.3289 35° Northeast 468 539 29,600 1,050 Climbing Fort Worth Center
Wed 03:55:04 PM 34.2972 -96.2344 35° Northeast 475 547 30,600 1,041 Climbing Fort Worth Center
Wed 03:56:05 PM 34.4111 -96.1422 34° Northeast 485 558 31,700 1,050 Climbing Fort Worth Center
Wed 03:57:04 PM 34.5247 -96.0475 34° Northeast 490 564 32,700 655 Climbing Fort Worth Center
Wed 03:58:04 PM 34.6428 -95.9522 34° Northeast 490 564 33,000 149 Climbing Fort Worth Center
Wed 03:59:05 PM 34.7564 -95.8567 35° Northeast 490 564 33,000  Level Fort Worth Center
Wed 04:00:04 PM 34.8697 -95.7633 34° Northeast 490 564 33,000  Level Fort Worth Center
Wed 04:02:09 PM 35.0969 -95.5508 37° Northeast 502 578 33,000  Level Kansas City Center
Wed 04:03:11 PM 35.2067 -95.4447 38° Northeast 503 579 33,000  Level Kansas City Center
Wed 04:04:13 PM 35.3175 -95.3411 37° Northeast 503 579 33,000  Level Kansas City Center
Wed 04:05:15 PM 35.4267 -95.2369 38° Northeast 500 575 33,000  Level Kansas City Center
Wed 04:06:17 PM 35.5592 -95.1100 38° Northeast 503 579 33,000  Level Kansas City Center
Wed 04:07:19 PM 35.6683 -95.0042 38° Northeast 501 577 33,000  Level Kansas City Center
Wed 04:08:21 PM 35.7767 -94.9006 38° Northeast 496 571 33,000  Level Kansas City Center
Wed 04:09:23 PM 35.8831 -94.7981 38° Northeast 492 566 33,000  Level Kansas City Center
Wed 04:10:20 PM 35.9958 -94.6928 37° Northeast 494 568 33,000  Level Memphis Center
Wed 04:11:20 PM 36.1017 -94.5853 39° Northeast 494 568 33,000  Level Memphis Center
Wed 04:12:20 PM 36.2092 -94.4828 38° Northeast 494 568 33,000  Level Memphis Center
Wed 04:13:31 PM 36.3317 -94.3600 39° Northeast 489 563 33,000  Level Kansas City Center
Wed 04:14:33 PM 36.4397 -94.2547 38° Northeast 493 567 33,000  Level Kansas City Center
Wed 04:15:35 PM 36.5483 -94.1478 38° Northeast 496 571 33,000  Level Kansas City Center
Wed 04:16:37 PM 36.6550 -94.0417 39° Northeast 493 567 33,000  Level Kansas City Center
Wed 04:17:39 PM 36.7589 -93.9372 39° Northeast 485 558 33,000  Level Kansas City Center
Wed 04:18:41 PM 36.8850 -93.8100 39° Northeast 485 558 33,000  Level Kansas City Center
Wed 04:19:43 PM 36.9764 -93.7164 39° Northeast 485 558 33,000  Level Kansas City Center
Wed 04:20:45 PM 37.0819 -93.6106 39° Northeast 486 559 33,000  Level Kansas City Center
Wed 04:21:47 PM 37.2081 -93.4817 39° Northeast 485 558 33,000  Level Kansas City Center
Wed 04:22:49 PM 37.3136 -93.3761 38° Northeast 484 557 33,000  Level Kansas City Center
Wed 04:23:51 PM 37.4208 -93.2714 38° Northeast 485 558 33,000  Level Kansas City Center
Wed 04:24:53 PM 37.5322 -93.1719 35° Northeast 486 559 33,000  Level Kansas City Center
Wed 04:25:55 PM 37.6419 -93.0700 36° Northeast 489 563 33,000  Level Kansas City Center
Wed 04:26:59 PM 37.7517 -92.9661 37° Northeast 489 563 33,000  Level Kansas City Center
Wed 04:27:59 PM 37.8619 -92.8650 36° Northeast 487 560 33,000  Level Kansas City Center
Wed 04:29:00 PM 37.9944 -92.7394 37° Northeast 489 563 33,000  Level Kansas City Center
Wed 04:30:02 PM 38.0911 -92.6494 36° Northeast 488 562 33,000  Level Kansas City Center
Wed 04:31:04 PM 38.2172 -92.5322 36° Northeast 488 562 33,000  Level Kansas City Center
Wed 04:32:06 PM 38.3286 -92.4267 37° Northeast 491 565 33,000  Level Kansas City Center
Wed 04:33:09 PM 38.4478 -92.3514 26° Northeast 482 555 33,000  Level Kansas City Center
Wed 04:34:11 PM 38.5764 -92.3447 North 463 533 33,000  Level Kansas City Center
Wed 04:35:13 PM 38.6917 -92.4069 337° Northwest 452 520 33,000  Level Kansas City Center
Wed 04:36:15 PM 38.8114 -92.4489 345° North 454 522 33,000  Level Kansas City Center
Wed 04:37:17 PM 38.9267 -92.3583 31° Northeast 487 560 33,000  Level Kansas City Center
Wed 04:38:19 PM 39.0356 -92.1961 49° Northeast 496 571 33,000  Level Kansas City Center
Wed 04:39:21 PM 39.1206 -92.0556 52° Northeast 494 568 33,000  Level Kansas City Center
Wed 04:40:23 PM 39.2050 -91.9136 52° Northeast 495 570 33,000  Level Kansas City Center
Wed 04:41:25 PM 39.2928 -91.7722 51° Northeast 494 568 33,000  Level Kansas City Center
Wed 04:42:27 PM 39.3772 -91.6333 52° Northeast 495 570 33,000  Level Kansas City Center
Wed 04:43:29 PM 39.4606 -91.4964 52° Northeast 490 564 33,000  Level Kansas City Center
Wed 04:44:31 PM 39.5403 -91.3622 52° Northeast 487 560 33,000  Level Kansas City Center
Wed 04:45:33 PM 39.6264 -91.2192 52° Northeast 487 560 33,000  Level Kansas City Center
Wed 04:46:35 PM 39.7322 -91.0578 50° Northeast 490 564 33,000  Level Kansas City Center
Wed 04:47:37 PM 39.8303 -90.9575 38° Northeast 492 566 33,000  Level Kansas City Center
Wed 04:48:39 PM 39.9394 -90.8503 37° Northeast 491 565 33,000  Level Kansas City Center
Wed 04:49:41 PM 40.0697 -90.7189 38° Northeast 492 566 33,000  Level Kansas City Center
Wed 04:50:43 PM 40.1761 -90.6086 38° Northeast 489 563 33,000  Level Kansas City Center
Wed 04:51:45 PM 40.2864 -90.4989 37° Northeast 494 568 33,000  Level Kansas City Center
Wed 04:52:54 PM 40.3944 -90.3867 38° Northeast 495 570 33,000  Level Chicago Center
Wed 04:53:56 PM 40.5247 -90.2533 38° Northeast 493 567 33,000  Level Chicago Center
Wed 04:54:58 PM 40.6258 -90.1492 38° Northeast 498 573 33,000 -242 Level Chicago Center
Wed 04:56:00 PM 40.7350 -90.0358 38° Northeast 501 577 32,500 -2,371 Descending Chicago Center
Wed 04:57:02 PM 40.8647 -89.9011 38° Northeast 499 574 28,100 -3,823 Descending Chicago Center
Wed 04:58:04 PM 40.9697 -89.7897 39° Northeast 489 563 24,600 -1,984 Descending Chicago Center
Wed 04:59:06 PM 41.0692 -89.6861 38° Northeast 474 545 24,000 -290 Descending Chicago Center
Wed 05:00:08 PM 41.1628 -89.5775 41° Northeast 455 524 24,000 -1,113 Level Chicago Center
Wed 05:01:10 PM 41.2217 -89.4378 61° Northeast 439 505 21,700 -2,710 Descending Chicago Center
Wed 05:02:12 PM 41.2914 -89.2647 62° Northeast 442 509 18,400 -3,072 Descending Chicago Center
Wed 05:03:15 PM 41.3408 -89.1333 63° Northeast 404 465 15,300 -2,832 Descending Chicago Center
Wed 05:04:17 PM 41.3939 -89.0056 61° Northeast 397 457 12,500 -2,129 Descending Chicago Center
Wed 05:05:19 PM 41.4414 -88.8894 61° Northeast 366 421 10,900 -726 Descending Chicago Center
Wed 05:06:21 PM 41.4856 -88.7747 63° Northeast 348 400 11,000 48 Climbing Chicago Center
Wed 05:07:23 PM 41.5386 -88.6403 62° Northeast 340 391 11,000  Level Chicago Center
Wed 05:08:25 PM 41.5783 -88.5383 62° Northeast 314 361 11,000 -484 Level Chicago Center
Wed 05:09:27 PM 41.6136 -88.4308 66° East 314 361 10,000 -1,113 Descending Chicago Center
Wed 05:10:29 PM 41.6478 -88.3247 67° East 311 358 8,700 -968 Descending Chicago Center
Wed 05:11:31 PM 41.6806 -88.2253 66° East 294 338 8,000 -581 Descending Chicago Center
Wed 05:12:33 PM 41.7386 -88.1531 43° Northeast 284 327 7,500 -919 Descending Chicago Center
Wed 05:13:35 PM 41.7947 -88.0861 42° Northeast 269 310 6,100 -1,776 Descending Chicago Center
Wed 05:14:38 PM 41.8497 -88.0228 41° Northeast 235 270 3,800 -1,824 Descending Chicago Center
Wed 05:15:40 PM 41.8908 -87.9739 42° Northeast 216 249 2,300 -1,065 Descending Chicago Center
Wed 05:16:42 PM 41.9178 -87.9406 43° Northeast 164 189 1,600 -581 Descending Chicago Center
Wed 05:17:44 PM 41.9458 -87.9086 40° Northeast 138 159 1,100 -484 Descending Chicago Center
Wed 05:19:00 PM 41.9667 -87.9000 37° Northeast  Level FlightAware Approximate

Login

Don't have an account? Register now (free) for customized features, flight alerts, and more!